sensor_id;sensor_type;location;lat;lon;timestamp;P1;durP1;ratioP1;P2;durP2;ratioP2
72895;SDS011;61036;53.224;6.554;2023-09-19T00:00:15;6.63;;;1.60;;
72895;SDS011;61036;53.224;6.554;2023-09-19T00:02:44;7.80;;;2.23;;
72895;SDS011;61036;53.224;6.554;2023-09-19T00:05:12;8.17;;;1.80;;
72895;SDS011;61036;53.224;6.554;2023-09-19T00:07:38;8.00;;;1.80;;
72895;SDS011;61036;53.224;6.554;2023-09-19T00:10:03;9.33;;;2.20;;
72895;SDS011;61036;53.224;6.554;2023-09-19T00:12:29;9.27;;;1.97;;
72895;SDS011;61036;53.224;6.554;2023-09-19T00:14:55;9.73;;;2.43;;
72895;SDS011;61036;53.224;6.554;2023-09-19T00:17:22;6.17;;;2.03;;
72895;SDS011;61036;53.224;6.554;2023-09-19T00:19:47;8.40;;;2.60;;
72895;SDS011;61036;53.224;6.554;2023-09-19T00:22:16;6.63;;;1.63;;
72895;SDS011;61036;53.224;6.554;2023-09-19T00:24:44;7.33;;;2.20;;
72895;SDS011;61036;53.224;6.554;2023-09-19T00:27:09;6.37;;;1.60;;
72895;SDS011;61036;53.224;6.554;2023-09-19T00:29:35;7.73;;;1.87;;
72895;SDS011;61036;53.224;6.554;2023-09-19T00:32:00;7.90;;;2.20;;
72895;SDS011;61036;53.224;6.554;2023-09-19T00:34:28;8.00;;;2.30;;
72895;SDS011;61036;53.224;6.554;2023-09-19T00:36:55;9.97;;;1.93;;
72895;SDS011;61036;53.224;6.554;2023-09-19T00:39:20;7.03;;;2.37;;
72895;SDS011;61036;53.224;6.554;2023-09-19T00:41:47;8.20;;;2.20;;
72895;SDS011;61036;53.224;6.554;2023-09-19T00:44:13;7.50;;;2.20;;
72895;SDS011;61036;53.224;6.554;2023-09-19T00:46:39;9.00;;;2.43;;
72895;SDS011;61036;53.224;6.554;2023-09-19T00:49:07;6.27;;;1.90;;
72895;SDS011;61036;53.224;6.554;2023-09-19T00:51:34;9.53;;;2.07;;
72895;SDS011;61036;53.224;6.554;2023-09-19T00:54:02;8.70;;;2.87;;
72895;SDS011;61036;53.224;6.554;2023-09-19T00:56:29;6.73;;;1.90;;
72895;SDS011;61036;53.224;6.554;2023-09-19T00:58:54;10.30;;;2.30;;
72895;SDS011;61036;53.224;6.554;2023-09-19T01:01:20;8.93;;;2.10;;
72895;SDS011;61036;53.224;6.554;2023-09-19T01:03:46;7.93;;;1.90;;
72895;SDS011;61036;53.224;6.554;2023-09-19T01:06:12;7.73;;;1.87;;
72895;SDS011;61036;53.224;6.554;2023-09-19T01:08:38;7.03;;;2.30;;
72895;SDS011;61036;53.224;6.554;2023-09-19T01:11:26;9.77;;;2.00;;
72895;SDS011;61036;53.224;6.554;2023-09-19T01:13:59;10.23;;;1.90;;
72895;SDS011;61036;53.224;6.554;2023-09-19T01:16:53;7.77;;;2.40;;
72895;SDS011;61036;53.224;6.554;2023-09-19T01:31:19;5.87;;;2.00;;
72895;SDS011;61036;53.224;6.554;2023-09-19T01:36:25;6.63;;;2.43;;
72895;SDS011;61036;53.224;6.554;2023-09-19T01:38:52;8.40;;;2.13;;
72895;SDS011;61036;53.224;6.554;2023-09-19T01:42:06;6.80;;;1.97;;
72895;SDS011;61036;53.224;6.554;2023-09-19T01:44:12;7.03;;;1.87;;
72895;SDS011;61036;53.224;6.554;2023-09-19T01:46:47;6.33;;;1.87;;
72895;SDS011;61036;53.224;6.554;2023-09-19T01:54:33;8.03;;;2.03;;
72895;SDS011;61036;53.224;6.554;2023-09-19T01:57:14;10.07;;;2.23;;
72895;SDS011;61036;53.224;6.554;2023-09-19T01:59:47;9.80;;;2.10;;
72895;SDS011;61036;53.224;6.554;2023-09-19T02:02:16;6.37;;;2.10;;
72895;SDS011;61036;53.224;6.554;2023-09-19T02:04:43;7.47;;;1.73;;
72895;SDS011;61036;53.224;6.554;2023-09-19T02:07:09;9.13;;;2.23;;
72895;SDS011;61036;53.224;6.554;2023-09-19T02:09:34;7.13;;;2.60;;
72895;SDS011;61036;53.224;6.554;2023-09-19T02:12:04;6.83;;;2.27;;
72895;SDS011;61036;53.224;6.554;2023-09-19T02:14:30;9.40;;;2.13;;
72895;SDS011;61036;53.224;6.554;2023-09-19T02:16:56;5.97;;;1.80;;
72895;SDS011;61036;53.224;6.554;2023-09-19T02:19:21;10.17;;;2.03;;
72895;SDS011;61036;53.224;6.554;2023-09-19T02:21:48;8.13;;;2.63;;
72895;SDS011;61036;53.224;6.554;2023-09-19T02:24:14;7.80;;;2.03;;
72895;SDS011;61036;53.224;6.554;2023-09-19T02:26:41;8.47;;;2.13;;
72895;SDS011;61036;53.224;6.554;2023-09-19T02:29:06;9.70;;;2.27;;
72895;SDS011;61036;53.224;6.554;2023-09-19T02:31:32;5.70;;;1.43;;
72895;SDS011;61036;53.224;6.554;2023-09-19T02:33:57;7.97;;;1.77;;
72895;SDS011;61036;53.224;6.554;2023-09-19T02:40:16;7.30;;;2.33;;
72895;SDS011;61036;53.224;6.554;2023-09-19T02:42:47;8.33;;;2.10;;
72895;SDS011;61036;53.224;6.554;2023-09-19T02:45:17;8.30;;;2.07;;
72895;SDS011;61036;53.224;6.554;2023-09-19T02:47:44;6.10;;;1.80;;
72895;SDS011;61036;53.224;6.554;2023-09-19T02:50:10;6.97;;;2.20;;
72895;SDS011;61036;53.224;6.554;2023-09-19T02:52:36;5.87;;;2.03;;
72895;SDS011;61036;53.224;6.554;2023-09-19T02:55:02;7.73;;;2.07;;
72895;SDS011;61036;53.224;6.554;2023-09-19T02:57:31;4.83;;;1.73;;
72895;SDS011;61036;53.224;6.554;2023-09-19T02:59:59;7.17;;;1.97;;
72895;SDS011;61036;53.224;6.554;2023-09-19T03:02:25;14.03;;;1.97;;
72895;SDS011;61036;53.224;6.554;2023-09-19T03:04:52;7.97;;;1.87;;
72895;SDS011;61036;53.224;6.554;2023-09-19T03:07:17;5.10;;;1.60;;
72895;SDS011;61036;53.224;6.554;2023-09-19T03:09:43;7.80;;;2.10;;
72895;SDS011;61036;53.224;6.554;2023-09-19T03:12:10;6.00;;;1.70;;
72895;SDS011;61036;53.224;6.554;2023-09-19T03:14:36;9.73;;;2.80;;
72895;SDS011;61036;53.224;6.554;2023-09-19T03:17:02;6.43;;;1.87;;
72895;SDS011;61036;53.224;6.554;2023-09-19T03:19:31;10.80;;;2.30;;
72895;SDS011;61036;53.224;6.554;2023-09-19T03:21:59;6.80;;;2.20;;
72895;SDS011;61036;53.224;6.554;2023-09-19T03:24:25;8.77;;;2.03;;
72895;SDS011;61036;53.224;6.554;2023-09-19T03:26:51;9.00;;;1.70;;
72895;SDS011;61036;53.224;6.554;2023-09-19T03:29:17;5.33;;;1.93;;
72895;SDS011;61036;53.224;6.554;2023-09-19T03:31:44;5.43;;;1.80;;
72895;SDS011;61036;53.224;6.554;2023-09-19T03:34:11;5.73;;;1.60;;
72895;SDS011;61036;53.224;6.554;2023-09-19T03:36:36;4.83;;;1.80;;
72895;SDS011;61036;53.224;6.554;2023-09-19T03:39:02;9.53;;;2.07;;
72895;SDS011;61036;53.224;6.554;2023-09-19T03:41:31;7.87;;;1.93;;
72895;SDS011;61036;53.224;6.554;2023-09-19T03:43:58;8.57;;;1.77;;
72895;SDS011;61036;53.224;6.554;2023-09-19T03:46:23;7.87;;;1.67;;
72895;SDS011;61036;53.224;6.554;2023-09-19T03:48:50;8.77;;;2.00;;
72895;SDS011;61036;53.224;6.554;2023-09-19T03:51:15;6.97;;;2.10;;
72895;SDS011;61036;53.224;6.554;2023-09-19T03:53:41;8.10;;;1.73;;
72895;SDS011;61036;53.224;6.554;2023-09-19T03:56:06;7.80;;;1.80;;
72895;SDS011;61036;53.224;6.554;2023-09-19T03:58:33;6.90;;;1.47;;
72895;SDS011;61036;53.224;6.554;2023-09-19T04:01:03;9.80;;;2.20;;
72895;SDS011;61036;53.224;6.554;2023-09-19T04:03:28;6.37;;;2.00;;
72895;SDS011;61036;53.224;6.554;2023-09-19T04:06:00;8.10;;;1.80;;
72895;SDS011;61036;53.224;6.554;2023-09-19T04:08:27;8.83;;;1.93;;
72895;SDS011;61036;53.224;6.554;2023-09-19T04:10:53;8.93;;;2.00;;
72895;SDS011;61036;53.224;6.554;2023-09-19T04:13:18;5.73;;;1.70;;
72895;SDS011;61036;53.224;6.554;2023-09-19T04:15:43;7.10;;;2.30;;
72895;SDS011;61036;53.224;6.554;2023-09-19T04:18:11;10.13;;;2.10;;
72895;SDS011;61036;53.224;6.554;2023-09-19T04:20:37;8.27;;;2.00;;
72895;SDS011;61036;53.224;6.554;2023-09-19T04:23:03;8.30;;;2.30;;
72895;SDS011;61036;53.224;6.554;2023-09-19T04:25:31;9.47;;;2.43;;
72895;SDS011;61036;53.224;6.554;2023-09-19T04:27:57;6.57;;;2.40;;
72895;SDS011;61036;53.224;6.554;2023-09-19T04:30:23;7.03;;;2.00;;
72895;SDS011;61036;53.224;6.554;2023-09-19T04:32:48;6.53;;;1.60;;
72895;SDS011;61036;53.224;6.554;2023-09-19T04:35:15;9.50;;;2.07;;
72895;SDS011;61036;53.224;6.554;2023-09-19T04:37:41;7.03;;;1.87;;
72895;SDS011;61036;53.224;6.554;2023-09-19T04:40:10;10.83;;;2.43;;
72895;SDS011;61036;53.224;6.554;2023-09-19T04:42:40;6.60;;;2.00;;
72895;SDS011;61036;53.224;6.554;2023-09-19T04:45:07;7.23;;;2.27;;
72895;SDS011;61036;53.224;6.554;2023-09-19T04:47:34;8.37;;;2.07;;
72895;SDS011;61036;53.224;6.554;2023-09-19T04:49:59;8.53;;;1.73;;
72895;SDS011;61036;53.224;6.554;2023-09-19T04:52:25;7.27;;;2.03;;
72895;SDS011;61036;53.224;6.554;2023-09-19T04:54:50;5.37;;;2.00;;
72895;SDS011;61036;53.224;6.554;2023-09-19T04:57:16;9.73;;;2.83;;
72895;SDS011;61036;53.224;6.554;2023-09-19T04:59:41;7.67;;;2.47;;
72895;SDS011;61036;53.224;6.554;2023-09-19T05:02:07;8.60;;;2.30;;
72895;SDS011;61036;53.224;6.554;2023-09-19T05:04:37;6.70;;;2.00;;
72895;SDS011;61036;53.224;6.554;2023-09-19T05:07:02;7.70;;;1.97;;
72895;SDS011;61036;53.224;6.554;2023-09-19T05:09:28;11.20;;;2.33;;
72895;SDS011;61036;53.224;6.554;2023-09-19T05:11:54;6.47;;;1.80;;
72895;SDS011;61036;53.224;6.554;2023-09-19T05:14:19;8.20;;;2.13;;
72895;SDS011;61036;53.224;6.554;2023-09-19T05:16:46;6.87;;;2.13;;
72895;SDS011;61036;53.224;6.554;2023-09-19T05:19:12;8.67;;;2.27;;
72895;SDS011;61036;53.224;6.554;2023-09-19T05:21:37;7.00;;;1.97;;
72895;SDS011;61036;53.224;6.554;2023-09-19T05:24:06;11.23;;;2.57;;
72895;SDS011;61036;53.224;6.554;2023-09-19T05:26:32;8.03;;;2.50;;
72895;SDS011;61036;53.224;6.554;2023-09-19T05:28:58;5.83;;;2.10;;
72895;SDS011;61036;53.224;6.554;2023-09-19T05:31:23;9.43;;;2.13;;
72895;SDS011;61036;53.224;6.554;2023-09-19T05:33:50;6.17;;;1.97;;
72895;SDS011;61036;53.224;6.554;2023-09-19T05:36:19;7.00;;;1.90;;
72895;SDS011;61036;53.224;6.554;2023-09-19T05:38:45;8.40;;;2.10;;
72895;SDS011;61036;53.224;6.554;2023-09-19T05:41:11;10.90;;;2.50;;
72895;SDS011;61036;53.224;6.554;2023-09-19T05:43:39;7.80;;;1.90;;
72895;SDS011;61036;53.224;6.554;2023-09-19T05:46:06;7.57;;;2.30;;
72895;SDS011;61036;53.224;6.554;2023-09-19T05:48:33;9.60;;;1.97;;
72895;SDS011;61036;53.224;6.554;2023-09-19T05:50:59;11.23;;;1.93;;
72895;SDS011;61036;53.224;6.554;2023-09-19T05:53:26;10.50;;;1.70;;
72895;SDS011;61036;53.224;6.554;2023-09-19T05:55:53;8.03;;;2.20;;
72895;SDS011;61036;53.224;6.554;2023-09-19T05:58:20;11.40;;;2.40;;
72895;SDS011;61036;53.224;6.554;2023-09-19T06:00:46;8.10;;;2.10;;
72895;SDS011;61036;53.224;6.554;2023-09-19T06:03:13;6.47;;;1.90;;
72895;SDS011;61036;53.224;6.554;2023-09-19T06:05:40;9.00;;;2.47;;
72895;SDS011;61036;53.224;6.554;2023-09-19T06:08:08;8.63;;;1.90;;
72895;SDS011;61036;53.224;6.554;2023-09-19T06:10:34;4.60;;;1.70;;
72895;SDS011;61036;53.224;6.554;2023-09-19T06:13:03;7.80;;;2.00;;
72895;SDS011;61036;53.224;6.554;2023-09-19T06:15:31;10.40;;;1.83;;
72895;SDS011;61036;53.224;6.554;2023-09-19T06:17:58;8.13;;;2.30;;
72895;SDS011;61036;53.224;6.554;2023-09-19T06:20:27;11.17;;;2.50;;
72895;SDS011;61036;53.224;6.554;2023-09-19T06:22:53;9.27;;;2.33;;
72895;SDS011;61036;53.224;6.554;2023-09-19T06:25:19;11.47;;;2.30;;
72895;SDS011;61036;53.224;6.554;2023-09-19T06:27:45;11.10;;;2.63;;
72895;SDS011;61036;53.224;6.554;2023-09-19T06:30:11;11.13;;;2.33;;
72895;SDS011;61036;53.224;6.554;2023-09-19T06:32:38;9.80;;;2.57;;
72895;SDS011;61036;53.224;6.554;2023-09-19T06:35:04;11.43;;;2.43;;
72895;SDS011;61036;53.224;6.554;2023-09-19T06:37:33;10.60;;;2.40;;
72895;SDS011;61036;53.224;6.554;2023-09-19T06:39:59;7.47;;;2.30;;
72895;SDS011;61036;53.224;6.554;2023-09-19T06:42:25;7.33;;;1.80;;
72895;SDS011;61036;53.224;6.554;2023-09-19T06:44:51;7.83;;;2.30;;
72895;SDS011;61036;53.224;6.554;2023-09-19T06:47:16;6.00;;;2.47;;
72895;SDS011;61036;53.224;6.554;2023-09-19T06:49:42;10.90;;;2.23;;
72895;SDS011;61036;53.224;6.554;2023-09-19T06:52:09;9.27;;;2.30;;
72895;SDS011;61036;53.224;6.554;2023-09-19T06:54:35;12.77;;;2.40;;
72895;SDS011;61036;53.224;6.554;2023-09-19T06:57:01;9.20;;;2.43;;
72895;SDS011;61036;53.224;6.554;2023-09-19T06:59:27;10.00;;;2.30;;
72895;SDS011;61036;53.224;6.554;2023-09-19T07:01:52;8.40;;;2.17;;
72895;SDS011;61036;53.224;6.554;2023-09-19T07:04:18;9.37;;;2.23;;
72895;SDS011;61036;53.224;6.554;2023-09-19T07:06:49;10.97;;;2.83;;
72895;SDS011;61036;53.224;6.554;2023-09-19T07:09:15;8.93;;;2.10;;
72895;SDS011;61036;53.224;6.554;2023-09-19T07:11:47;9.43;;;2.23;;
72895;SDS011;61036;53.224;6.554;2023-09-19T07:14:13;13.67;;;2.50;;
72895;SDS011;61036;53.224;6.554;2023-09-19T07:16:38;11.20;;;2.50;;
72895;SDS011;61036;53.224;6.554;2023-09-19T07:19:07;11.77;;;2.70;;
72895;SDS011;61036;53.224;6.554;2023-09-19T07:21:33;8.43;;;3.03;;
72895;SDS011;61036;53.224;6.554;2023-09-19T07:24:00;11.10;;;3.27;;
72895;SDS011;61036;53.224;6.554;2023-09-19T07:26:27;11.47;;;2.50;;
72895;SDS011;61036;53.224;6.554;2023-09-19T07:28:53;12.17;;;2.80;;
72895;SDS011;61036;53.224;6.554;2023-09-19T07:31:19;8.97;;;2.20;;
72895;SDS011;61036;53.224;6.554;2023-09-19T07:33:45;9.17;;;2.13;;
72895;SDS011;61036;53.224;6.554;2023-09-19T07:36:11;11.40;;;2.20;;
72895;SDS011;61036;53.224;6.554;2023-09-19T07:38:38;11.03;;;2.53;;
72895;SDS011;61036;53.224;6.554;2023-09-19T07:41:05;6.17;;;1.90;;
72895;SDS011;61036;53.224;6.554;2023-09-19T07:43:31;8.63;;;2.30;;
72895;SDS011;61036;53.224;6.554;2023-09-19T07:45:56;9.63;;;2.37;;
72895;SDS011;61036;53.224;6.554;2023-09-19T07:48:22;12.97;;;2.40;;
72895;SDS011;61036;53.224;6.554;2023-09-19T07:50:49;9.37;;;2.43;;
72895;SDS011;61036;53.224;6.554;2023-09-19T07:53:15;11.23;;;2.40;;
72895;SDS011;61036;53.224;6.554;2023-09-19T07:55:42;9.20;;;2.63;;
72895;SDS011;61036;53.224;6.554;2023-09-19T07:58:13;8.90;;;2.83;;
72895;SDS011;61036;53.224;6.554;2023-09-19T08:00:41;11.53;;;2.93;;
72895;SDS011;61036;53.224;6.554;2023-09-19T08:03:06;10.03;;;2.57;;
72895;SDS011;61036;53.224;6.554;2023-09-19T08:05:34;7.93;;;2.00;;
72895;SDS011;61036;53.224;6.554;2023-09-19T08:07:59;10.30;;;2.43;;
72895;SDS011;61036;53.224;6.554;2023-09-19T08:10:25;9.17;;;2.63;;
72895;SDS011;61036;53.224;6.554;2023-09-19T08:12:52;5.23;;;1.70;;
72895;SDS011;61036;53.224;6.554;2023-09-19T08:15:23;6.40;;;1.87;;
72895;SDS011;61036;53.224;6.554;2023-09-19T08:17:48;8.83;;;2.30;;
72895;SDS011;61036;53.224;6.554;2023-09-19T08:20:15;9.60;;;2.50;;
72895;SDS011;61036;53.224;6.554;2023-09-19T08:22:47;12.90;;;2.30;;
72895;SDS011;61036;53.224;6.554;2023-09-19T08:25:13;12.50;;;3.90;;
72895;SDS011;61036;53.224;6.554;2023-09-19T08:27:42;8.63;;;2.70;;
72895;SDS011;61036;53.224;6.554;2023-09-19T08:30:13;8.97;;;2.67;;
72895;SDS011;61036;53.224;6.554;2023-09-19T08:32:39;14.20;;;3.63;;
72895;SDS011;61036;53.224;6.554;2023-09-19T08:35:06;8.00;;;1.83;;
72895;SDS011;61036;53.224;6.554;2023-09-19T08:37:32;8.07;;;2.33;;
72895;SDS011;61036;53.224;6.554;2023-09-19T08:39:57;9.97;;;2.10;;
72895;SDS011;61036;53.224;6.554;2023-09-19T08:42:23;8.33;;;2.30;;
72895;SDS011;61036;53.224;6.554;2023-09-19T08:44:50;9.07;;;2.00;;
72895;SDS011;61036;53.224;6.554;2023-09-19T08:47:16;9.13;;;2.20;;
72895;SDS011;61036;53.224;6.554;2023-09-19T08:52:43;10.40;;;2.27;;
72895;SDS011;61036;53.224;6.554;2023-09-19T08:55:12;7.57;;;2.37;;
72895;SDS011;61036;53.224;6.554;2023-09-19T08:57:45;10.23;;;2.57;;
72895;SDS011;61036;53.224;6.554;2023-09-19T09:00:14;7.13;;;2.33;;
72895;SDS011;61036;53.224;6.554;2023-09-19T09:02:42;9.63;;;2.27;;
72895;SDS011;61036;53.224;6.554;2023-09-19T09:05:09;13.47;;;2.67;;
72895;SDS011;61036;53.224;6.554;2023-09-19T09:07:39;8.87;;;2.33;;
72895;SDS011;61036;53.224;6.554;2023-09-19T09:10:06;10.60;;;3.03;;
72895;SDS011;61036;53.224;6.554;2023-09-19T09:12:33;10.93;;;2.60;;
72895;SDS011;61036;53.224;6.554;2023-09-19T09:15:04;11.97;;;3.57;;
72895;SDS011;61036;53.224;6.554;2023-09-19T09:17:30;9.73;;;2.57;;
72895;SDS011;61036;53.224;6.554;2023-09-19T09:19:56;10.13;;;2.60;;
72895;SDS011;61036;53.224;6.554;2023-09-19T09:22:22;11.23;;;2.80;;
72895;SDS011;61036;53.224;6.554;2023-09-19T09:27:18;8.63;;;2.73;;
72895;SDS011;61036;53.224;6.554;2023-09-19T09:29:45;9.37;;;2.80;;
72895;SDS011;61036;53.224;6.554;2023-09-19T09:32:24;10.17;;;2.97;;
72895;SDS011;61036;53.224;6.554;2023-09-19T09:34:52;9.97;;;2.70;;
72895;SDS011;61036;53.224;6.554;2023-09-19T09:37:19;14.87;;;3.63;;
72895;SDS011;61036;53.224;6.554;2023-09-19T09:39:49;11.60;;;3.50;;
72895;SDS011;61036;53.224;6.554;2023-09-19T09:42:35;10.27;;;3.27;;
72895;SDS011;61036;53.224;6.554;2023-09-19T09:45:13;9.80;;;3.33;;
72895;SDS011;61036;53.224;6.554;2023-09-19T09:47:57;10.13;;;3.00;;
72895;SDS011;61036;53.224;6.554;2023-09-19T09:50:32;10.73;;;3.20;;
72895;SDS011;61036;53.224;6.554;2023-09-19T09:53:23;13.93;;;3.00;;
72895;SDS011;61036;53.224;6.554;2023-09-19T09:56:08;11.00;;;3.10;;
72895;SDS011;61036;53.224;6.554;2023-09-19T10:01:13;10.37;;;3.50;;
72895;SDS011;61036;53.224;6.554;2023-09-19T10:03:40;9.73;;;3.23;;
72895;SDS011;61036;53.224;6.554;2023-09-19T10:06:13;13.43;;;3.00;;
72895;SDS011;61036;53.224;6.554;2023-09-19T10:09:02;9.37;;;2.83;;
72895;SDS011;61036;53.224;6.554;2023-09-19T10:11:36;11.73;;;2.73;;
72895;SDS011;61036;53.224;6.554;2023-09-19T10:14:05;7.20;;;2.10;;
72895;SDS011;61036;53.224;6.554;2023-09-19T10:16:35;10.47;;;2.80;;
72895;SDS011;61036;53.224;6.554;2023-09-19T10:19:03;11.60;;;2.70;;
72895;SDS011;61036;53.224;6.554;2023-09-19T10:21:33;9.00;;;2.63;;
72895;SDS011;61036;53.224;6.554;2023-09-19T10:24:01;9.33;;;2.53;;
72895;SDS011;61036;53.224;6.554;2023-09-19T10:26:30;9.17;;;2.77;;
72895;SDS011;61036;53.224;6.554;2023-09-19T10:28:57;12.63;;;3.07;;
72895;SDS011;61036;53.224;6.554;2023-09-19T10:31:27;11.07;;;3.30;;
72895;SDS011;61036;53.224;6.554;2023-09-19T10:33:53;12.50;;;2.87;;
72895;SDS011;61036;53.224;6.554;2023-09-19T10:36:21;10.83;;;3.27;;
72895;SDS011;61036;53.224;6.554;2023-09-19T10:38:51;10.60;;;2.70;;
72895;SDS011;61036;53.224;6.554;2023-09-19T10:41:21;11.93;;;3.17;;
72895;SDS011;61036;53.224;6.554;2023-09-19T10:43:47;15.00;;;3.03;;
72895;SDS011;61036;53.224;6.554;2023-09-19T10:46:13;9.80;;;2.90;;
72895;SDS011;61036;53.224;6.554;2023-09-19T10:48:40;9.20;;;2.90;;
72895;SDS011;61036;53.224;6.554;2023-09-19T10:51:10;12.57;;;2.90;;
72895;SDS011;61036;53.224;6.554;2023-09-19T10:53:54;11.77;;;2.87;;
72895;SDS011;61036;53.224;6.554;2023-09-19T10:56:29;10.07;;;3.10;;
72895;SDS011;61036;53.224;6.554;2023-09-19T10:59:09;13.13;;;3.57;;
72895;SDS011;61036;53.224;6.554;2023-09-19T11:01:47;12.10;;;3.40;;
72895;SDS011;61036;53.224;6.554;2023-09-19T11:04:32;11.63;;;2.93;;
72895;SDS011;61036;53.224;6.554;2023-09-19T11:07:08;11.27;;;3.47;;
72895;SDS011;61036;53.224;6.554;2023-09-19T11:09:54;9.00;;;3.03;;
72895;SDS011;61036;53.224;6.554;2023-09-19T11:15:01;10.47;;;2.43;;
72895;SDS011;61036;53.224;6.554;2023-09-19T11:17:34;12.73;;;3.60;;
72895;SDS011;61036;53.224;6.554;2023-09-19T11:30:31;11.23;;;2.77;;
72895;SDS011;61036;53.224;6.554;2023-09-19T11:35:58;10.10;;;3.57;;
72895;SDS011;61036;53.224;6.554;2023-09-19T11:43:49;9.73;;;2.77;;
72895;SDS011;61036;53.224;6.554;2023-09-19T11:46:16;9.40;;;3.03;;
72895;SDS011;61036;53.224;6.554;2023-09-19T11:48:49;10.23;;;3.07;;
72895;SDS011;61036;53.224;6.554;2023-09-19T11:53:49;11.40;;;2.90;;
72895;SDS011;61036;53.224;6.554;2023-09-19T11:56:19;10.20;;;2.67;;
72895;SDS011;61036;53.224;6.554;2023-09-19T11:58:49;8.87;;;2.77;;
72895;SDS011;61036;53.224;6.554;2023-09-19T12:01:31;9.73;;;2.67;;
72895;SDS011;61036;53.224;6.554;2023-09-19T12:03:59;10.83;;;2.60;;
72895;SDS011;61036;53.224;6.554;2023-09-19T12:06:27;8.73;;;2.30;;
72895;SDS011;61036;53.224;6.554;2023-09-19T12:08:55;14.63;;;3.07;;
72895;SDS011;61036;53.224;6.554;2023-09-19T12:11:26;12.20;;;2.73;;
72895;SDS011;61036;53.224;6.554;2023-09-19T12:13:54;10.40;;;2.37;;
72895;SDS011;61036;53.224;6.554;2023-09-19T12:16:24;9.23;;;2.70;;
72895;SDS011;61036;53.224;6.554;2023-09-19T12:18:50;10.13;;;2.63;;
72895;SDS011;61036;53.224;6.554;2023-09-19T12:21:22;10.93;;;2.80;;
72895;SDS011;61036;53.224;6.554;2023-09-19T12:26:44;9.10;;;2.60;;
72895;SDS011;61036;53.224;6.554;2023-09-19T12:34:19;9.43;;;2.70;;
72895;SDS011;61036;53.224;6.554;2023-09-19T12:36:47;7.93;;;2.43;;
72895;SDS011;61036;53.224;6.554;2023-09-19T12:39:22;12.17;;;3.17;;
72895;SDS011;61036;53.224;6.554;2023-09-19T12:41:49;11.07;;;2.50;;
72895;SDS011;61036;53.224;6.554;2023-09-19T12:44:16;13.77;;;2.90;;
72895;SDS011;61036;53.224;6.554;2023-09-19T12:46:43;9.60;;;2.20;;
72895;SDS011;61036;53.224;6.554;2023-09-19T12:49:16;6.57;;;2.70;;
72895;SDS011;61036;53.224;6.554;2023-09-19T12:51:43;7.77;;;2.03;;
72895;SDS011;61036;53.224;6.554;2023-09-19T12:54:09;10.50;;;2.00;;
72895;SDS011;61036;53.224;6.554;2023-09-19T12:56:39;7.53;;;2.40;;
72895;SDS011;61036;53.224;6.554;2023-09-19T12:59:13;9.07;;;2.50;;
72895;SDS011;61036;53.224;6.554;2023-09-19T13:01:40;6.87;;;2.40;;
72895;SDS011;61036;53.224;6.554;2023-09-19T13:06:46;11.23;;;2.30;;
72895;SDS011;61036;53.224;6.554;2023-09-19T13:09:15;9.17;;;2.47;;
72895;SDS011;61036;53.224;6.554;2023-09-19T13:11:42;8.43;;;2.10;;
72895;SDS011;61036;53.224;6.554;2023-09-19T13:14:13;9.47;;;2.03;;
72895;SDS011;61036;53.224;6.554;2023-09-19T13:19:38;7.07;;;1.97;;
72895;SDS011;61036;53.224;6.554;2023-09-19T13:25:04;6.87;;;2.10;;
72895;SDS011;61036;53.224;6.554;2023-09-19T13:27:43;8.83;;;2.30;;
72895;SDS011;61036;53.224;6.554;2023-09-19T13:30:17;9.30;;;2.47;;
72895;SDS011;61036;53.224;6.554;2023-09-19T13:32:43;7.97;;;2.43;;
72895;SDS011;61036;53.224;6.554;2023-09-19T13:35:09;9.17;;;2.10;;
72895;SDS011;61036;53.224;6.554;2023-09-19T13:37:36;9.47;;;2.80;;
72895;SDS011;61036;53.224;6.554;2023-09-19T13:40:07;7.87;;;2.10;;
72895;SDS011;61036;53.224;6.554;2023-09-19T13:42:33;9.43;;;2.10;;
72895;SDS011;61036;53.224;6.554;2023-09-19T13:45:01;11.50;;;2.30;;
72895;SDS011;61036;53.224;6.554;2023-09-19T13:47:30;10.63;;;1.80;;
72895;SDS011;61036;53.224;6.554;2023-09-19T13:49:57;8.50;;;2.13;;
72895;SDS011;61036;53.224;6.554;2023-09-19T13:52:23;5.97;;;1.57;;
72895;SDS011;61036;53.224;6.554;2023-09-19T13:54:50;9.60;;;1.90;;
72895;SDS011;61036;53.224;6.554;2023-09-19T13:57:16;6.50;;;2.00;;
72895;SDS011;61036;53.224;6.554;2023-09-19T13:59:42;7.63;;;2.03;;
72895;SDS011;61036;53.224;6.554;2023-09-19T14:02:07;4.17;;;1.77;;
72895;SDS011;61036;53.224;6.554;2023-09-19T14:04:33;7.10;;;1.70;;
72895;SDS011;61036;53.224;6.554;2023-09-19T14:07:01;6.33;;;1.63;;
72895;SDS011;61036;53.224;6.554;2023-09-19T14:09:28;8.70;;;1.97;;
72895;SDS011;61036;53.224;6.554;2023-09-19T14:11:54;9.20;;;1.97;;
72895;SDS011;61036;53.224;6.554;2023-09-19T14:14:19;6.53;;;2.07;;
72895;SDS011;61036;53.224;6.554;2023-09-19T14:16:46;7.90;;;1.90;;
72895;SDS011;61036;53.224;6.554;2023-09-19T14:19:13;6.20;;;1.70;;
72895;SDS011;61036;53.224;6.554;2023-09-19T14:21:41;10.13;;;2.03;;
72895;SDS011;61036;53.224;6.554;2023-09-19T14:24:08;5.07;;;1.50;;
72895;SDS011;61036;53.224;6.554;2023-09-19T14:26:35;6.57;;;1.83;;
72895;SDS011;61036;53.224;6.554;2023-09-19T14:29:01;7.03;;;2.17;;
72895;SDS011;61036;53.224;6.554;2023-09-19T14:31:27;7.47;;;1.77;;
72895;SDS011;61036;53.224;6.554;2023-09-19T14:33:53;6.00;;;2.13;;
72895;SDS011;61036;53.224;6.554;2023-09-19T14:36:22;8.37;;;2.30;;
72895;SDS011;61036;53.224;6.554;2023-09-19T14:38:47;7.53;;;1.90;;
72895;SDS011;61036;53.224;6.554;2023-09-19T14:41:18;6.20;;;1.90;;
72895;SDS011;61036;53.224;6.554;2023-09-19T14:43:44;9.33;;;1.97;;
72895;SDS011;61036;53.224;6.554;2023-09-19T14:46:09;5.67;;;1.90;;
72895;SDS011;61036;53.224;6.554;2023-09-19T14:48:36;7.90;;;1.80;;
72895;SDS011;61036;53.224;6.554;2023-09-19T14:51:05;5.93;;;1.90;;
72895;SDS011;61036;53.224;6.554;2023-09-19T14:53:33;6.07;;;1.60;;
72895;SDS011;61036;53.224;6.554;2023-09-19T14:56:00;8.20;;;2.20;;
72895;SDS011;61036;53.224;6.554;2023-09-19T14:58:29;10.37;;;2.23;;
72895;SDS011;61036;53.224;6.554;2023-09-19T15:01:05;6.80;;;2.07;;
72895;SDS011;61036;53.224;6.554;2023-09-19T15:03:34;4.77;;;1.90;;
72895;SDS011;61036;53.224;6.554;2023-09-19T15:06:04;6.43;;;2.47;;
72895;SDS011;61036;53.224;6.554;2023-09-19T15:08:31;6.03;;;1.70;;
72895;SDS011;61036;53.224;6.554;2023-09-19T15:11:03;4.20;;;1.60;;
72895;SDS011;61036;53.224;6.554;2023-09-19T15:13:32;6.87;;;2.37;;
72895;SDS011;61036;53.224;6.554;2023-09-19T15:16:08;5.80;;;1.90;;
72895;SDS011;61036;53.224;6.554;2023-09-19T15:18:35;6.33;;;1.90;;
72895;SDS011;61036;53.224;6.554;2023-09-19T15:21:08;4.67;;;1.53;;
72895;SDS011;61036;53.224;6.554;2023-09-19T15:23:35;7.13;;;1.70;;
72895;SDS011;61036;53.224;6.554;2023-09-19T15:26:06;7.37;;;1.80;;
72895;SDS011;61036;53.224;6.554;2023-09-19T15:28:33;7.50;;;2.20;;
72895;SDS011;61036;53.224;6.554;2023-09-19T15:33:25;7.07;;;2.30;;
72895;SDS011;61036;53.224;6.554;2023-09-19T15:36:00;9.33;;;2.40;;
72895;SDS011;61036;53.224;6.554;2023-09-19T15:38:29;5.90;;;2.13;;
72895;SDS011;61036;53.224;6.554;2023-09-19T15:40:57;7.47;;;2.17;;
72895;SDS011;61036;53.224;6.554;2023-09-19T15:43:23;7.00;;;1.97;;
72895;SDS011;61036;53.224;6.554;2023-09-19T15:45:49;6.63;;;2.17;;
72895;SDS011;61036;53.224;6.554;2023-09-19T15:48:15;7.73;;;1.80;;
72895;SDS011;61036;53.224;6.554;2023-09-19T15:50:41;5.33;;;2.03;;
72895;SDS011;61036;53.224;6.554;2023-09-19T15:53:07;7.50;;;2.13;;
72895;SDS011;61036;53.224;6.554;2023-09-19T15:55:43;6.47;;;2.13;;
72895;SDS011;61036;53.224;6.554;2023-09-19T15:58:09;6.00;;;1.97;;
72895;SDS011;61036;53.224;6.554;2023-09-19T16:00:34;8.57;;;2.40;;
72895;SDS011;61036;53.224;6.554;2023-09-19T16:03:05;5.20;;;1.83;;